sensor_id;sensor_type;location;lat;lon;timestamp;pressure;altitude;pressure_sealevel;temperature;humidity
43621;BME280;29213;50.770;7.298;2022-09-03T00:00:45;100391.00;;;13.75;45.14
43621;BME280;29213;50.770;7.298;2022-09-03T00:05:50;100424.56;;;14.00;44.35
43621;BME280;29213;50.770;7.298;2022-09-03T00:08:22;100459.81;;;14.19;44.67
43621;BME280;29213;50.770;7.298;2022-09-03T00:13:51;100417.31;;;13.94;43.90
43621;BME280;29213;50.770;7.298;2022-09-03T00:16:21;100453.59;;;14.11;43.93
43621;BME280;29213;50.770;7.298;2022-09-03T00:18:59;100438.53;;;13.95;43.96
43621;BME280;29213;50.770;7.298;2022-09-03T00:24:44;100458.84;;;14.05;44.33
43621;BME280;29213;50.770;7.298;2022-09-03T00:27:17;100455.50;;;14.02;44.61
43621;BME280;29213;50.770;7.298;2022-09-03T00:32:19;100450.13;;;14.02;44.49
43621;BME280;29213;50.770;7.298;2022-09-03T00:34:55;100444.47;;;13.90;44.83
43621;BME280;29213;50.770;7.298;2022-09-03T00:37:22;100434.28;;;13.79;44.60
43621;BME280;29213;50.770;7.298;2022-09-03T00:39:48;100387.72;;;13.58;44.61
43621;BME280;29213;50.770;7.298;2022-09-03T00:42:37;100429.81;;;13.86;44.93
43621;BME280;29213;50.770;7.298;2022-09-03T00:45:39;100305.03;;;13.05;44.71
43621;BME280;29213;50.770;7.298;2022-09-03T00:48:20;100418.75;;;13.74;45.01
43621;BME280;29213;50.770;7.298;2022-09-03T00:53:37;100428.00;;;13.72;44.66
43621;BME280;29213;50.770;7.298;2022-09-03T00:56:33;100423.84;;;13.69;44.24
43621;BME280;29213;50.770;7.298;2022-09-03T01:01:44;100410.38;;;13.41;44.29
43621;BME280;29213;50.770;7.298;2022-09-03T01:07:12;100443.66;;;13.38;44.64
43621;BME280;29213;50.770;7.298;2022-09-03T01:09:55;100387.25;;;13.03;44.73
43621;BME280;29213;50.770;7.298;2022-09-03T01:12:51;100436.19;;;13.33;44.78
43621;BME280;29213;50.770;7.298;2022-09-03T01:18:18;100446.41;;;13.30;44.85
43621;BME280;29213;50.770;7.298;2022-09-03T01:21:02;100445.34;;;13.24;45.25
43621;BME280;29213;50.770;7.298;2022-09-03T01:29:51;100413.16;;;13.17;46.49
43621;BME280;29213;50.770;7.298;2022-09-03T01:36:03;100437.75;;;13.28;46.37
43621;BME280;29213;50.770;7.298;2022-09-03T01:46:42;100450.13;;;13.29;46.49
43621;BME280;29213;50.770;7.298;2022-09-03T01:49:29;100411.31;;;13.03;46.23
43621;BME280;29213;50.770;7.298;2022-09-03T01:52:11;100402.53;;;12.94;46.54
43621;BME280;29213;50.770;7.298;2022-09-03T01:57:40;100389.88;;;12.88;46.95
43621;BME280;29213;50.770;7.298;2022-09-03T02:00:17;100363.63;;;12.61;47.05
43621;BME280;29213;50.770;7.298;2022-09-03T02:02:46;100429.16;;;13.02;47.19
43621;BME280;29213;50.770;7.298;2022-09-03T02:05:20;100440.81;;;13.09;47.29
43621;BME280;29213;50.770;7.298;2022-09-03T02:07:59;100411.66;;;12.85;47.68
43621;BME280;29213;50.770;7.298;2022-09-03T02:10:37;100447.03;;;13.02;47.73
43621;BME280;29213;50.770;7.298;2022-09-03T02:13:09;100453.78;;;12.98;47.51
43621;BME280;29213;50.770;7.298;2022-09-03T02:15:42;100310.03;;;12.09;47.64
43621;BME280;29213;50.770;7.298;2022-09-03T02:18:14;100419.09;;;12.74;47.55
43621;BME280;29213;50.770;7.298;2022-09-03T02:20:41;100405.91;;;12.73;47.72
43621;BME280;29213;50.770;7.298;2022-09-03T02:23:07;100425.06;;;12.76;47.71
43621;BME280;29213;50.770;7.298;2022-09-03T02:25:35;100430.97;;;12.72;47.99
43621;BME280;29213;50.770;7.298;2022-09-03T02:28:03;100441.09;;;12.76;48.11
43621;BME280;29213;50.770;7.298;2022-09-03T02:30:29;100363.13;;;12.27;48.22
43621;BME280;29213;50.770;7.298;2022-09-03T02:32:55;100409.00;;;12.46;48.37
43621;BME280;29213;50.770;7.298;2022-09-03T02:35:20;100422.66;;;12.51;48.28
43621;BME280;29213;50.770;7.298;2022-09-03T02:37:46;100422.03;;;12.49;48.42
43621;BME280;29213;50.770;7.298;2022-09-03T02:40:11;100399.94;;;12.32;48.53
43621;BME280;29213;50.770;7.298;2022-09-03T02:42:37;100438.50;;;12.53;48.92
43621;BME280;29213;50.770;7.298;2022-09-03T02:47:34;100306.84;;;11.67;49.21
43621;BME280;29213;50.770;7.298;2022-09-03T02:50:01;100421.13;;;12.34;49.44
43621;BME280;29213;50.770;7.298;2022-09-03T02:52:28;100366.66;;;12.05;49.82
43621;BME280;29213;50.770;7.298;2022-09-03T02:54:53;100390.13;;;12.09;49.65
43621;BME280;29213;50.770;7.298;2022-09-03T02:57:19;100326.34;;;11.68;49.44
43621;BME280;29213;50.770;7.298;2022-09-03T02:59:44;100367.56;;;11.88;49.72
43621;BME280;29213;50.770;7.298;2022-09-03T03:02:11;100431.69;;;12.27;50.25
43621;BME280;29213;50.770;7.298;2022-09-03T03:04:37;100368.56;;;11.87;50.25
43621;BME280;29213;50.770;7.298;2022-09-03T03:07:02;100372.25;;;11.86;50.44
43621;BME280;29213;50.770;7.298;2022-09-03T03:09:28;100314.97;;;11.50;50.36
43621;BME280;29213;50.770;7.298;2022-09-03T03:11:53;100354.81;;;11.75;50.18
43621;BME280;29213;50.770;7.298;2022-09-03T03:14:20;100345.00;;;11.68;50.22
43621;BME280;29213;50.770;7.298;2022-09-03T03:16:45;100401.44;;;12.11;50.13
43621;BME280;29213;50.770;7.298;2022-09-03T03:19:11;100344.03;;;11.69;50.49
43621;BME280;29213;50.770;7.298;2022-09-03T03:21:36;100203.25;;;10.86;50.27
43621;BME280;29213;50.770;7.298;2022-09-03T03:24:02;100371.06;;;11.89;50.28
43621;BME280;29213;50.770;7.298;2022-09-03T03:26:28;100407.97;;;12.09;50.21
43621;BME280;29213;50.770;7.298;2022-09-03T03:28:59;100420.25;;;12.18;50.21
43621;BME280;29213;50.770;7.298;2022-09-03T03:31:25;100417.75;;;12.16;50.31
43621;BME280;29213;50.770;7.298;2022-09-03T03:33:53;100369.75;;;11.85;50.45
43621;BME280;29213;50.770;7.298;2022-09-03T03:36:19;100419.13;;;12.12;50.61
43621;BME280;29213;50.770;7.298;2022-09-03T03:38:45;100327.59;;;11.57;50.45
43621;BME280;29213;50.770;7.298;2022-09-03T03:41:14;100402.53;;;12.02;50.61
43621;BME280;29213;50.770;7.298;2022-09-03T03:43:40;100370.75;;;11.84;50.65
43621;BME280;29213;50.770;7.298;2022-09-03T03:46:05;100332.75;;;11.58;50.85
43621;BME280;29213;50.770;7.298;2022-09-03T03:48:31;100363.97;;;11.73;50.82
43621;BME280;29213;50.770;7.298;2022-09-03T03:51:01;100397.38;;;11.92;50.93
43621;BME280;29213;50.770;7.298;2022-09-03T03:53:29;100423.97;;;12.09;51.10
43621;BME280;29213;50.770;7.298;2022-09-03T03:55:59;100341.25;;;11.54;51.24
43621;BME280;29213;50.770;7.298;2022-09-03T03:58:28;100188.41;;;10.51;51.41
43621;BME280;29213;50.770;7.298;2022-09-03T04:01:06;100414.69;;;12.05;51.71
43621;BME280;29213;50.770;7.298;2022-09-03T04:03:33;100195.47;;;10.67;51.99
43621;BME280;29213;50.770;7.298;2022-09-03T04:05:59;100400.25;;;11.90;51.51
43621;BME280;29213;50.770;7.298;2022-09-03T04:08:26;100412.28;;;11.86;50.58
43621;BME280;29213;50.770;7.298;2022-09-03T04:10:51;100399.34;;;11.75;50.61
43621;BME280;29213;50.770;7.298;2022-09-03T04:13:17;100383.06;;;11.61;51.21
43621;BME280;29213;50.770;7.298;2022-09-03T04:15:43;100246.88;;;10.85;51.74
43621;BME280;29213;50.770;7.298;2022-09-03T04:18:08;100381.19;;;11.70;52.22
43621;BME280;29213;50.770;7.298;2022-09-03T04:20:37;100385.00;;;11.76;51.82
43621;BME280;29213;50.770;7.298;2022-09-03T04:23:03;100416.69;;;12.02;51.78
43621;BME280;29213;50.770;7.298;2022-09-03T04:25:29;100415.69;;;12.03;51.43
43621;BME280;29213;50.770;7.298;2022-09-03T04:27:54;100386.59;;;11.85;51.63
43621;BME280;29213;50.770;7.298;2022-09-03T04:30:20;100425.28;;;12.13;51.38
43621;BME280;29213;50.770;7.298;2022-09-03T04:32:49;100285.91;;;11.32;51.48
43621;BME280;29213;50.770;7.298;2022-09-03T04:35:18;100401.44;;;12.11;51.22
43621;BME280;29213;50.770;7.298;2022-09-03T04:37:45;100326.53;;;11.66;51.24
43621;BME280;29213;50.770;7.298;2022-09-03T04:40:11;100377.53;;;11.95;50.99
43621;BME280;29213;50.770;7.298;2022-09-03T04:42:36;100284.69;;;11.43;51.48
43621;BME280;29213;50.770;7.298;2022-09-03T04:45:02;100344.38;;;11.89;51.77
43621;BME280;29213;50.770;7.298;2022-09-03T04:47:27;100330.56;;;11.85;51.63
43621;BME280;29213;50.770;7.298;2022-09-03T04:49:53;100195.63;;;11.06;51.20
43621;BME280;29213;50.770;7.298;2022-09-03T04:52:19;100410.53;;;12.40;51.21
43621;BME280;29213;50.770;7.298;2022-09-03T04:54:45;100374.41;;;12.14;51.31
43621;BME280;29213;50.770;7.298;2022-09-03T04:57:10;100313.53;;;11.86;51.39
43621;BME280;29213;50.770;7.298;2022-09-03T04:59:35;100415.34;;;12.30;50.49
43621;BME280;29213;50.770;7.298;2022-09-03T05:02:01;100398.44;;;12.14;50.05
43621;BME280;29213;50.770;7.298;2022-09-03T05:04:27;100313.78;;;11.53;50.23
43621;BME280;29213;50.770;7.298;2022-09-03T05:06:52;100370.00;;;11.98;50.34
43621;BME280;29213;50.770;7.298;2022-09-03T05:09:18;100359.72;;;11.95;50.97
43621;BME280;29213;50.770;7.298;2022-09-03T05:11:43;100301.75;;;11.57;51.28
43621;BME280;29213;50.770;7.298;2022-09-03T05:14:09;100322.28;;;11.80;50.62
43621;BME280;29213;50.770;7.298;2022-09-03T05:16:37;100420.03;;;12.43;50.35
43621;BME280;29213;50.770;7.298;2022-09-03T05:19:02;100423.09;;;12.40;50.65
43621;BME280;29213;50.770;7.298;2022-09-03T05:21:30;100420.75;;;12.37;50.32
43621;BME280;29213;50.770;7.298;2022-09-03T05:23:58;100417.38;;;12.43;50.61
43621;BME280;29213;50.770;7.298;2022-09-03T05:26:25;100339.47;;;12.01;51.28
43621;BME280;29213;50.770;7.298;2022-09-03T05:28:53;100383.63;;;12.27;51.30
43621;BME280;29213;50.770;7.298;2022-09-03T05:31:20;100315.19;;;11.96;50.66
43621;BME280;29213;50.770;7.298;2022-09-03T05:33:52;100427.47;;;12.71;51.11
43621;BME280;29213;50.770;7.298;2022-09-03T05:36:21;100423.06;;;12.78;50.62
43621;BME280;29213;50.770;7.298;2022-09-03T05:38:48;100429.50;;;12.84;50.25
43621;BME280;29213;50.770;7.298;2022-09-03T05:41:16;100421.78;;;12.89;50.51
43621;BME280;29213;50.770;7.298;2022-09-03T05:43:42;100423.09;;;12.93;49.91
43621;BME280;29213;50.770;7.298;2022-09-03T05:46:10;100430.38;;;13.00;50.20
43621;BME280;29213;50.770;7.298;2022-09-03T05:48:38;100055.47;;;10.73;49.93
43621;BME280;29213;50.770;7.298;2022-09-03T05:51:11;100360.22;;;12.67;49.59
43621;BME280;29213;50.770;7.298;2022-09-03T05:53:39;100420.06;;;13.12;49.70
43621;BME280;29213;50.770;7.298;2022-09-03T05:56:10;100375.44;;;12.82;49.93
43621;BME280;29213;50.770;7.298;2022-09-03T05:58:38;100362.25;;;12.80;49.98
43621;BME280;29213;50.770;7.298;2022-09-03T06:01:12;100434.47;;;13.26;50.09
43621;BME280;29213;50.770;7.298;2022-09-03T06:03:39;100357.75;;;12.81;50.01
43621;BME280;29213;50.770;7.298;2022-09-03T06:06:05;100335.06;;;12.77;50.33
43621;BME280;29213;50.770;7.298;2022-09-03T06:08:33;100425.56;;;13.40;50.27
43621;BME280;29213;50.770;7.298;2022-09-03T06:11:00;100332.84;;;12.80;49.45
43621;BME280;29213;50.770;7.298;2022-09-03T06:13:29;100431.13;;;13.39;49.51
43621;BME280;29213;50.770;7.298;2022-09-03T06:15:56;100422.91;;;13.25;47.98
43621;BME280;29213;50.770;7.298;2022-09-03T06:18:22;100333.41;;;12.76;49.24
43621;BME280;29213;50.770;7.298;2022-09-03T06:20:55;100309.66;;;12.66;49.39
43621;BME280;29213;50.770;7.298;2022-09-03T06:23:22;100424.75;;;13.40;49.50
43621;BME280;29213;50.770;7.298;2022-09-03T06:25:58;100442.63;;;13.54;50.10
43621;BME280;29213;50.770;7.298;2022-09-03T06:28:23;100434.59;;;13.54;49.11
43621;BME280;29213;50.770;7.298;2022-09-03T06:30:52;100050.16;;;11.12;47.84
43621;BME280;29213;50.770;7.298;2022-09-03T06:33:17;100249.69;;;12.38;47.61
43621;BME280;29213;50.770;7.298;2022-09-03T06:35:43;100440.16;;;13.53;46.97
43621;BME280;29213;50.770;7.298;2022-09-03T06:38:11;100258.44;;;12.32;47.03
43621;BME280;29213;50.770;7.298;2022-09-03T06:40:37;100428.81;;;13.35;46.99
43621;BME280;29213;50.770;7.298;2022-09-03T06:43:02;100377.22;;;13.05;46.61
43621;BME280;29213;50.770;7.298;2022-09-03T06:45:29;100436.00;;;13.50;46.41
43621;BME280;29213;50.770;7.298;2022-09-03T06:47:55;100393.50;;;13.25;46.42
43621;BME280;29213;50.770;7.298;2022-09-03T06:50:21;100438.75;;;13.57;46.15
43621;BME280;29213;50.770;7.298;2022-09-03T06:52:54;100400.75;;;13.46;46.09
43621;BME280;29213;50.770;7.298;2022-09-03T06:55:21;100391.25;;;13.59;45.42
43621;BME280;29213;50.770;7.298;2022-09-03T06:57:47;100437.53;;;13.96;45.49
43621;BME280;29213;50.770;7.298;2022-09-03T07:00:14;100408.53;;;13.78;45.65
43621;BME280;29213;50.770;7.298;2022-09-03T07:02:39;100255.59;;;13.01;45.23
43621;BME280;29213;50.770;7.298;2022-09-03T07:05:07;100397.09;;;14.06;44.83
43621;BME280;29213;50.770;7.298;2022-09-03T07:07:33;100245.59;;;13.03;44.73
43621;BME280;29213;50.770;7.298;2022-09-03T07:09:58;100402.22;;;14.08;44.82
43621;BME280;29213;50.770;7.298;2022-09-03T07:12:23;100448.16;;;14.48;44.28
43621;BME280;29213;50.770;7.298;2022-09-03T07:14:49;100391.91;;;14.05;44.47
43621;BME280;29213;50.770;7.298;2022-09-03T07:17:15;100440.66;;;14.43;44.80
43621;BME280;29213;50.770;7.298;2022-09-03T07:19:40;100260.25;;;13.29;44.64
43621;BME280;29213;50.770;7.298;2022-09-03T07:22:06;100341.84;;;13.83;45.18
43621;BME280;29213;50.770;7.298;2022-09-03T07:24:40;100428.47;;;14.41;45.32
43621;BME280;29213;50.770;7.298;2022-09-03T07:27:07;100453.25;;;14.72;45.40
43621;BME280;29213;50.770;7.298;2022-09-03T07:29:33;100372.94;;;14.28;45.72
43621;BME280;29213;50.770;7.298;2022-09-03T07:31:59;100404.00;;;14.44;44.40
43621;BME280;29213;50.770;7.298;2022-09-03T07:34:24;100452.28;;;14.79;44.31
43621;BME280;29213;50.770;7.298;2022-09-03T07:36:51;100422.47;;;14.61;44.16
43621;BME280;29213;50.770;7.298;2022-09-03T07:39:17;100424.56;;;14.65;44.40
43621;BME280;29213;50.770;7.298;2022-09-03T07:41:44;100409.44;;;14.58;44.36
43621;BME280;29213;50.770;7.298;2022-09-03T07:44:14;100443.44;;;14.86;44.93
43621;BME280;29213;50.770;7.298;2022-09-03T07:46:43;100457.25;;;15.04;44.97
43621;BME280;29213;50.770;7.298;2022-09-03T07:49:10;100354.94;;;14.43;45.26
43621;BME280;29213;50.770;7.298;2022-09-03T07:51:36;100461.22;;;15.15;45.27
43621;BME280;29213;50.770;7.298;2022-09-03T07:54:04;100461.00;;;15.17;44.10
43621;BME280;29213;50.770;7.298;2022-09-03T07:56:31;100376.63;;;14.49;43.58
43621;BME280;29213;50.770;7.298;2022-09-03T07:58:57;100447.84;;;14.93;43.85
43621;BME280;29213;50.770;7.298;2022-09-03T08:01:24;100464.31;;;15.19;43.37
43621;BME280;29213;50.770;7.298;2022-09-03T08:03:51;100437.53;;;14.97;44.16
43621;BME280;29213;50.770;7.298;2022-09-03T08:06:19;100343.66;;;14.55;43.97
43621;BME280;29213;50.770;7.298;2022-09-03T08:08:46;100373.38;;;14.60;44.12
43621;BME280;29213;50.770;7.298;2022-09-03T08:11:17;100428.69;;;14.96;43.88
43621;BME280;29213;50.770;7.298;2022-09-03T08:13:44;100483.84;;;15.41;44.41
43621;BME280;29213;50.770;7.298;2022-09-03T08:16:11;100477.16;;;15.23;44.04
43621;BME280;29213;50.770;7.298;2022-09-03T08:18:37;100487.09;;;15.30;44.17
43621;BME280;29213;50.770;7.298;2022-09-03T08:21:11;100481.19;;;15.48;44.53
43621;BME280;29213;50.770;7.298;2022-09-03T08:23:43;100464.06;;;15.49;45.28
43621;BME280;29213;50.770;7.298;2022-09-03T08:26:09;100387.50;;;15.04;44.80
43621;BME280;29213;50.770;7.298;2022-09-03T08:28:36;100477.25;;;15.44;45.71
43621;BME280;29213;50.770;7.298;2022-09-03T08:31:13;100493.75;;;15.41;46.56
43621;BME280;29213;50.770;7.298;2022-09-03T08:33:41;100491.09;;;15.12;48.28
43621;BME280;29213;50.770;7.298;2022-09-03T08:36:10;100490.91;;;15.14;49.41
43621;BME280;29213;50.770;7.298;2022-09-03T08:38:40;100458.28;;;15.10;49.44
43621;BME280;29213;50.770;7.298;2022-09-03T08:41:13;100497.22;;;15.34;48.99
43621;BME280;29213;50.770;7.298;2022-09-03T08:44:08;100279.72;;;13.88;49.45
43621;BME280;29213;50.770;7.298;2022-09-03T08:52:45;100487.84;;;15.17;48.71
43621;BME280;29213;50.770;7.298;2022-09-03T08:55:27;100473.31;;;15.04;48.98
43621;BME280;29213;50.770;7.298;2022-09-03T08:58:10;100416.81;;;14.77;49.03
43621;BME280;29213;50.770;7.298;2022-09-03T09:00:59;100489.56;;;15.31;48.85
43621;BME280;29213;50.770;7.298;2022-09-03T09:03:32;100490.81;;;15.35;48.64
43621;BME280;29213;50.770;7.298;2022-09-03T09:11:43;100497.91;;;15.08;47.23
43621;BME280;29213;50.770;7.298;2022-09-03T09:14:15;100489.50;;;15.18;47.23
43621;BME280;29213;50.770;7.298;2022-09-03T09:17:16;100353.88;;;14.38;46.76
43621;BME280;29213;50.770;7.298;2022-09-03T09:20:25;100484.09;;;15.46;46.87
43621;BME280;29213;50.770;7.298;2022-09-03T09:23:07;100386.53;;;14.83;46.05
43621;BME280;29213;50.770;7.298;2022-09-03T09:25:36;100486.19;;;15.65;46.34
43621;BME280;29213;50.770;7.298;2022-09-03T09:28:16;100491.13;;;15.54;45.75
43621;BME280;29213;50.770;7.298;2022-09-03T09:30:44;100446.44;;;15.26;45.83
43621;BME280;29213;50.770;7.298;2022-09-03T09:33:16;100488.97;;;15.78;46.26
43621;BME280;29213;50.770;7.298;2022-09-03T09:35:43;100229.69;;;14.17;45.71
43621;BME280;29213;50.770;7.298;2022-09-03T09:38:09;100478.59;;;15.75;45.68
43621;BME280;29213;50.770;7.298;2022-09-03T09:40:38;100453.00;;;15.72;45.80
43621;BME280;29213;50.770;7.298;2022-09-03T09:43:16;100479.47;;;15.82;45.69
43621;BME280;29213;50.770;7.298;2022-09-03T09:45:47;100476.81;;;15.96;45.62
43621;BME280;29213;50.770;7.298;2022-09-03T09:48:30;100259.25;;;14.73;45.26
43621;BME280;29213;50.770;7.298;2022-09-03T09:51:04;100272.94;;;14.91;45.45
43621;BME280;29213;50.770;7.298;2022-09-03T09:53:30;100084.22;;;13.68;45.61
43621;BME280;29213;50.770;7.298;2022-09-03T09:55:57;100338.94;;;15.41;45.80
43621;BME280;29213;50.770;7.298;2022-09-03T09:58:25;100479.38;;;16.31;45.32
43621;BME280;29213;50.770;7.298;2022-09-03T10:01:16;100486.66;;;16.44;45.39
43621;BME280;29213;50.770;7.298;2022-09-03T10:03:51;100436.16;;;15.99;45.39
43621;BME280;29213;50.770;7.298;2022-09-03T10:06:22;100382.19;;;15.80;45.61
43621;BME280;29213;50.770;7.298;2022-09-03T10:09:09;100487.47;;;16.58;45.57
43621;BME280;29213;50.770;7.298;2022-09-03T10:11:36;100490.16;;;16.72;45.67
43621;BME280;29213;50.770;7.298;2022-09-03T10:14:10;100401.88;;;16.28;45.67
43621;BME280;29213;50.770;7.298;2022-09-03T10:16:40;100473.81;;;16.93;45.68
43621;BME280;29213;50.770;7.298;2022-09-03T10:19:22;100473.41;;;16.96;44.96
43621;BME280;29213;50.770;7.298;2022-09-03T10:22:25;100471.53;;;16.77;45.38
43621;BME280;29213;50.770;7.298;2022-09-03T10:24:55;100481.28;;;16.91;45.17
43621;BME280;29213;50.770;7.298;2022-09-03T10:27:22;100371.91;;;16.45;45.92
43621;BME280;29213;50.770;7.298;2022-09-03T10:29:47;100458.06;;;17.17;45.49
43621;BME280;29213;50.770;7.298;2022-09-03T10:32:42;100456.78;;;17.27;44.82
43621;BME280;29213;50.770;7.298;2022-09-03T10:35:41;100487.34;;;17.53;45.01
43621;BME280;29213;50.770;7.298;2022-09-03T10:43:53;100481.91;;;18.12;44.76
43621;BME280;29213;50.770;7.298;2022-09-03T10:46:28;100424.81;;;17.96;44.70
43621;BME280;29213;50.770;7.298;2022-09-03T10:51:42;100413.84;;;18.23;44.49
43621;BME280;29213;50.770;7.298;2022-09-03T10:56:56;100456.84;;;18.88;44.02
43621;BME280;29213;50.770;7.298;2022-09-03T10:59:50;100463.38;;;19.17;43.64
43621;BME280;29213;50.770;7.298;2022-09-03T11:05:06;100425.63;;;18.99;43.18
43621;BME280;29213;50.770;7.298;2022-09-03T11:07:40;100356.44;;;18.41;42.68
43621;BME280;29213;50.770;7.298;2022-09-03T11:10:27;100454.53;;;19.29;43.14
43621;BME280;29213;50.770;7.298;2022-09-03T11:15:23;100453.34;;;19.25;43.69
43621;BME280;29213;50.770;7.298;2022-09-03T11:17:55;100455.44;;;19.22;43.65
43621;BME280;29213;50.770;7.298;2022-09-03T11:20:24;100433.03;;;19.03;43.56
43621;BME280;29213;50.770;7.298;2022-09-03T11:22:56;100454.03;;;19.20;43.96
43621;BME280;29213;50.770;7.298;2022-09-03T11:25:27;100454.75;;;19.46;43.84
43621;BME280;29213;50.770;7.298;2022-09-03T11:33:27;100436.03;;;19.14;42.71
43621;BME280;29213;50.770;7.298;2022-09-03T11:35:56;100392.56;;;18.85;43.33
43621;BME280;29213;50.770;7.298;2022-09-03T11:38:26;100346.91;;;18.83;43.75
43621;BME280;29213;50.770;7.298;2022-09-03T11:46:00;100423.47;;;19.57;43.77
43621;BME280;29213;50.770;7.298;2022-09-03T11:48:46;100446.28;;;19.61;43.14
43621;BME280;29213;50.770;7.298;2022-09-03T11:51:30;100425.38;;;19.38;43.07
43621;BME280;29213;50.770;7.298;2022-09-03T11:54:06;100417.22;;;19.44;43.27
43621;BME280;29213;50.770;7.298;2022-09-03T11:56:48;100442.13;;;19.77;43.25
43621;BME280;29213;50.770;7.298;2022-09-03T11:59:18;100443.09;;;19.83;43.42
43621;BME280;29213;50.770;7.298;2022-09-03T12:01:57;100436.50;;;19.91;42.99
43621;BME280;29213;50.770;7.298;2022-09-03T12:04:43;100438.53;;;20.26;42.87
43621;BME280;29213;50.770;7.298;2022-09-03T12:07:30;100435.34;;;20.29;41.68
43621;BME280;29213;50.770;7.298;2022-09-03T12:17:58;100431.00;;;20.64;41.56
43621;BME280;29213;50.770;7.298;2022-09-03T12:23:29;100394.19;;;20.51;42.19
43621;BME280;29213;50.770;7.298;2022-09-03T12:25:59;100318.13;;;19.99;42.13
43621;BME280;29213;50.770;7.298;2022-09-03T12:28:27;100408.66;;;20.45;42.14
43621;BME280;29213;50.770;7.298;2022-09-03T12:30:53;100406.88;;;20.62;41.74
43621;BME280;29213;50.770;7.298;2022-09-03T12:33:22;100367.38;;;20.25;42.04
43621;BME280;29213;50.770;7.298;2022-09-03T12:36:00;100412.06;;;20.40;42.51
43621;BME280;29213;50.770;7.298;2022-09-03T12:38:27;100416.19;;;20.54;42.80
43621;BME280;29213;50.770;7.298;2022-09-03T12:40:54;100322.69;;;19.99;42.58
43621;BME280;29213;50.770;7.298;2022-09-03T12:43:19;100156.13;;;19.14;42.82
43621;BME280;29213;50.770;7.298;2022-09-03T12:45:47;100403.59;;;20.84;41.90
43621;BME280;29213;50.770;7.298;2022-09-03T12:48:20;100367.38;;;20.73;42.41
43621;BME280;29213;50.770;7.298;2022-09-03T12:50:48;100380.56;;;20.69;42.24
43621;BME280;29213;50.770;7.298;2022-09-03T12:53:23;100249.22;;;19.54;43.19
43621;BME280;29213;50.770;7.298;2022-09-03T12:55:56;100402.44;;;20.56;43.22
43621;BME280;29213;50.770;7.298;2022-09-03T13:00:55;100395.84;;;20.76;43.08
43621;BME280;29213;50.770;7.298;2022-09-03T13:03:43;100399.16;;;20.90;43.22
43621;BME280;29213;50.770;7.298;2022-09-03T13:06:09;100263.72;;;20.20;42.25
43621;BME280;29213;50.770;7.298;2022-09-03T13:08:59;100392.06;;;21.01;42.62
43621;BME280;29213;50.770;7.298;2022-09-03T13:11:26;100349.13;;;20.80;42.36
43621;BME280;29213;50.770;7.298;2022-09-03T13:13:59;100334.00;;;20.55;42.85
43621;BME280;29213;50.770;7.298;2022-09-03T13:30:20;100307.75;;;20.68;42.81
43621;BME280;29213;50.770;7.298;2022-09-03T13:33:22;100375.59;;;21.31;42.40
43621;BME280;29213;50.770;7.298;2022-09-03T13:36:14;100295.13;;;20.74;43.00
43621;BME280;29213;50.770;7.298;2022-09-03T13:38:53;100368.84;;;21.46;42.95
43621;BME280;29213;50.770;7.298;2022-09-03T13:44:36;100371.53;;;21.75;41.92
43621;BME280;29213;50.770;7.298;2022-09-03T13:50:42;100295.59;;;21.41;42.48
43621;BME280;29213;50.770;7.298;2022-09-03T13:55:46;100372.28;;;21.87;41.46
43621;BME280;29213;50.770;7.298;2022-09-03T14:00:53;100360.28;;;22.00;41.61
43621;BME280;29213;50.770;7.298;2022-09-03T14:03:31;100368.59;;;22.11;41.54
43621;BME280;29213;50.770;7.298;2022-09-03T14:11:26;100345.97;;;21.54;41.49
43621;BME280;29213;50.770;7.298;2022-09-03T14:27:40;100322.94;;;21.39;42.19
43621;BME280;29213;50.770;7.298;2022-09-03T14:35:35;100360.53;;;21.99;41.68
43621;BME280;29213;50.770;7.298;2022-09-03T14:38:26;100360.38;;;22.06;41.36
43621;BME280;29213;50.770;7.298;2022-09-03T14:43:35;100368.03;;;21.92;41.18
43621;BME280;29213;50.770;7.298;2022-09-03T14:49:24;100372.59;;;21.91;41.37
43621;BME280;29213;50.770;7.298;2022-09-03T14:52:30;100372.19;;;21.82;41.37
43621;BME280;29213;50.770;7.298;2022-09-03T14:55:12;100368.81;;;21.75;42.14
43621;BME280;29213;50.770;7.298;2022-09-03T15:00:14;100371.63;;;21.80;41.63
43621;BME280;29213;50.770;7.298;2022-09-03T15:03:00;100378.84;;;21.74;41.88
43621;BME280;29213;50.770;7.298;2022-09-03T15:05:49;100376.53;;;21.66;41.94
43621;BME280;29213;50.770;7.298;2022-09-03T15:08:33;100357.97;;;21.75;41.96
43621;BME280;29213;50.770;7.298;2022-09-03T15:11:21;100367.09;;;21.86;42.01
43621;BME280;29213;50.770;7.298;2022-09-03T15:13:52;100371.97;;;22.01;41.96
43621;BME280;29213;50.770;7.298;2022-09-03T15:19:10;100339.41;;;21.38;41.99
43621;BME280;29213;50.770;7.298;2022-09-03T15:24:36;100375.28;;;21.45;42.67
43621;BME280;29213;50.770;7.298;2022-09-03T15:29:47;100391.28;;;21.58;42.42
43621;BME280;29213;50.770;7.298;2022-09-03T15:32:31;100391.41;;;21.52;42.77
43621;BME280;29213;50.770;7.298;2022-09-03T15:35:09;100387.47;;;21.42;43.10
43621;BME280;29213;50.770;7.298;2022-09-03T15:37:57;100391.97;;;21.25;43.33
43621;BME280;29213;50.770;7.298;2022-09-03T15:40:28;100393.00;;;21.35;43.38
43621;BME280;29213;50.770;7.298;2022-09-03T15:43:21;100390.41;;;21.41;43.45
43621;BME280;29213;50.770;7.298;2022-09-03T15:48:27;100394.75;;;21.54;43.17
43621;BME280;29213;50.770;7.298;2022-09-03T15:53:51;100404.28;;;21.56;42.85
43621;BME280;29213;50.770;7.298;2022-09-03T15:56:37;100405.19;;;21.62;43.17
43621;BME280;29213;50.770;7.298;2022-09-03T15:59:13;100403.78;;;21.59;43.26
43621;BME280;29213;50.770;7.298;2022-09-03T16:04:31;100408.38;;;21.59;43.62
43621;BME280;29213;50.770;7.298;2022-09-03T16:07:20;100398.47;;;21.53;43.38